Terminal Aerodrome Forecast
Issued by NWS

Home | Current Version | Previous Version | Text Only | Print | Product List | Glossary On
Versions: 1 2 3 4 5 6 7 8 9 10 11 12
000
FTUS46 KMTR 280523
TAFSTS
TAF
KSTS 280523Z 2806/2906 16003KT P6SM SKC
     FM281200 VRB03KT 6SM BR VV002
      TEMPO 2812/2815 1/2SM FG VV002
     FM281700 17008KT P6SM SKC
     FM290400 24004KT P6SM SKC=

USA.gov is the U.S. government's official web portal to all federal, state and local government web resources and services.